createdAt,value
2019-03-24T00:01:45.913Z,5.70
2019-03-24T00:04:21.241Z,10.73
2019-03-24T00:06:53.748Z,13.07
2019-03-24T00:09:37.059Z,13.03
2019-03-24T00:12:09.801Z,9.10
2019-03-24T00:14:45.233Z,10.53
2019-03-24T00:17:17.899Z,9.97
2019-03-24T00:19:53.289Z,9.13
2019-03-24T00:22:26.105Z,7.87
2019-03-24T00:25:06.456Z,11.20
2019-03-24T00:27:38.990Z,11.47
2019-03-24T00:30:15.453Z,11.17
2019-03-24T00:32:48.150Z,11.90
2019-03-24T00:35:29.518Z,13.00
2019-03-24T00:38:02.950Z,12.93
2019-03-24T00:40:35.818Z,15.27
2019-03-24T00:43:08.483Z,12.23
2019-03-24T00:45:44.066Z,8.17
2019-03-24T00:48:16.586Z,5.50
2019-03-24T00:50:56.750Z,6.83
2019-03-24T00:53:29.210Z,7.20
2019-03-24T00:56:13.588Z,8.87
2019-03-24T00:58:46.028Z,4.70
2019-03-24T01:01:21.693Z,5.47
2019-03-24T01:03:55.413Z,10.37
2019-03-24T01:06:30.998Z,12.23
2019-03-24T01:09:04.273Z,11.70
2019-03-24T01:11:39.808Z,9.17
2019-03-24T01:14:12.526Z,9.43
2019-03-24T01:16:52.206Z,8.40
2019-03-24T01:19:24.829Z,9.63
2019-03-24T01:21:57.643Z,9.33
2019-03-24T01:24:30.231Z,9.93
2019-03-24T01:27:06.199Z,11.60
2019-03-24T01:29:38.714Z,14.47
2019-03-24T01:32:23.651Z,16.63
2019-03-24T01:34:56.310Z,16.27
2019-03-24T01:37:29.042Z,11.10
2019-03-24T01:40:01.661Z,8.73
2019-03-24T01:42:52.155Z,9.23
2019-03-24T01:45:24.690Z,8.60
2019-03-24T01:47:57.163Z,8.33
2019-03-24T01:50:29.701Z,8.28
2019-03-24T01:53:02.303Z,8.10
2019-03-24T01:55:34.841Z,8.53
2019-03-24T01:58:16.548Z,7.55
2019-03-24T02:00:49.396Z,7.72
2019-03-24T02:03:25.005Z,7.35
2019-03-24T02:05:57.803Z,7.37
2019-03-24T02:08:31.324Z,6.97
2019-03-24T02:11:04.154Z,6.75
2019-03-24T02:13:43.921Z,7.00
2019-03-24T02:16:16.517Z,6.55
2019-03-24T02:18:49.031Z,6.80
2019-03-24T02:21:21.795Z,6.40
2019-03-24T02:24:04.523Z,5.83
2019-03-24T02:26:37.008Z,5.92
2019-03-24T02:29:18.541Z,5.90
2019-03-24T02:31:50.929Z,5.62
2019-03-24T02:34:25.635Z,6.40
2019-03-24T02:36:58.716Z,5.58
2019-03-24T02:39:31.421Z,5.33
2019-03-24T02:42:04.524Z,5.22
2019-03-24T02:44:45.041Z,5.60
2019-03-24T02:47:17.623Z,5.30
2019-03-24T02:49:59.184Z,5.47
2019-03-24T02:52:31.423Z,4.92
2019-03-24T02:55:03.954Z,5.25
2019-03-24T02:57:36.462Z,5.28
2019-03-24T03:00:17.701Z,5.50
2019-03-24T03:02:50.573Z,5.80
2019-03-24T03:05:23.167Z,5.83
2019-03-24T03:07:55.574Z,5.35
2019-03-24T03:10:38.914Z,5.65
2019-03-24T03:13:11.886Z,5.30
2019-03-24T03:15:47.168Z,5.40
2019-03-24T03:18:19.746Z,6.35
2019-03-24T03:20:55.105Z,5.42
2019-03-24T03:23:27.677Z,5.22
2019-03-24T03:26:08.111Z,5.03
2019-03-24T03:28:41.094Z,5.35
2019-03-24T03:31:20.083Z,4.87
2019-03-24T03:33:53.417Z,5.20
2019-03-24T03:36:28.945Z,5.10
2019-03-24T03:39:01.387Z,5.50
2019-03-24T03:41:37.194Z,5.22
2019-03-24T03:44:09.626Z,5.42
2019-03-24T03:46:52.375Z,4.80
2019-03-24T03:49:19.341Z,4.97
2019-03-24T03:51:57.103Z,4.78
2019-03-24T03:54:29.535Z,5.05
2019-03-24T03:57:09.903Z,5.42
2019-03-24T03:59:42.390Z,5.50
2019-03-24T04:02:22.303Z,5.28
2019-03-24T04:04:54.845Z,4.80
2019-03-24T04:07:27.334Z,5.42
2019-03-24T04:09:59.739Z,4.80
2019-03-24T04:12:41.448Z,4.87
2019-03-24T04:15:14.137Z,4.65
2019-03-24T04:17:46.695Z,5.28
2019-03-24T04:20:19.546Z,4.55
2019-03-24T04:23:04.520Z,5.42
2019-03-24T04:25:36.955Z,4.65
2019-03-24T04:28:16.818Z,5.50
2019-03-24T04:30:49.267Z,5.30
2019-03-24T04:33:21.729Z,8.08
2019-03-24T04:35:54.254Z,6.67
2019-03-24T04:38:30.557Z,5.50
2019-03-24T04:41:03.100Z,5.00
2019-03-24T04:43:45.638Z,12.78
2019-03-24T04:46:18.070Z,8.85
2019-03-24T04:48:50.482Z,6.05
2019-03-24T04:51:22.853Z,5.60
2019-03-24T04:54:02.501Z,5.42
2019-03-24T04:56:36.078Z,5.30
2019-03-24T04:59:13.045Z,5.20
2019-03-24T05:01:45.613Z,5.53
2019-03-24T05:04:20.821Z,5.47
2019-03-24T05:06:54.063Z,5.75
2019-03-24T05:09:34.000Z,5.15
2019-03-24T05:12:06.442Z,5.00
2019-03-24T05:14:46.008Z,5.60
2019-03-24T05:17:26.712Z,5.40
2019-03-24T05:19:52.577Z,5.60
2019-03-24T05:22:24.771Z,5.00
2019-03-24T05:25:06.556Z,5.17
2019-03-24T05:27:39.076Z,5.60
2019-03-24T05:30:11.561Z,5.25
2019-03-24T05:32:43.997Z,5.08
2019-03-24T05:35:22.541Z,5.67
2019-03-24T05:37:55.276Z,5.62
2019-03-24T05:40:37.542Z,5.45
2019-03-24T05:43:10.003Z,5.15
2019-03-24T05:45:47.007Z,5.37
2019-03-24T05:48:19.640Z,5.42
2019-03-24T05:50:55.619Z,5.05
2019-03-24T05:53:28.061Z,4.30
2019-03-24T05:56:04.592Z,4.00
2019-03-24T05:58:37.019Z,4.80
2019-03-24T06:01:14.666Z,4.80
2019-03-24T06:03:47.269Z,4.03
2019-03-24T06:06:30.169Z,4.43
2019-03-24T06:09:02.631Z,4.23
2019-03-24T06:11:38.315Z,4.67
2019-03-24T06:14:11.680Z,4.27
2019-03-24T06:16:48.131Z,4.10
2019-03-24T06:19:21.249Z,4.20
2019-03-24T06:22:01.113Z,3.90
2019-03-24T06:24:33.639Z,3.80
2019-03-24T06:27:09.137Z,4.77
2019-03-24T06:29:41.501Z,4.67
2019-03-24T06:32:21.312Z,4.73
2019-03-24T06:34:53.792Z,5.17
2019-03-24T06:37:33.790Z,5.40
2019-03-24T06:40:06.550Z,4.90
2019-03-24T06:42:41.873Z,4.83
2019-03-24T06:45:14.527Z,4.97
2019-03-24T06:47:57.555Z,4.60
2019-03-24T06:50:24.729Z,4.70
2019-03-24T06:52:57.221Z,5.27
2019-03-24T06:55:29.870Z,4.43
2019-03-24T06:58:06.172Z,4.70
2019-03-24T07:00:38.690Z,5.20
2019-03-24T07:03:29.960Z,5.00
2019-03-24T07:06:02.688Z,5.30
2019-03-24T07:08:35.985Z,5.30
2019-03-24T07:11:13.481Z,5.33
2019-03-24T07:13:42.792Z,5.13
2019-03-24T07:16:15.448Z,5.00
2019-03-24T07:18:51.984Z,5.70
2019-03-24T07:21:24.750Z,5.70
2019-03-24T07:24:06.582Z,5.00
2019-03-24T07:26:39.884Z,5.70
2019-03-24T07:29:12.693Z,5.87
2019-03-24T07:31:45.484Z,4.90
2019-03-24T07:34:22.422Z,4.80
2019-03-24T07:36:55.768Z,5.47
2019-03-24T07:39:38.013Z,5.60
2019-03-24T07:42:11.019Z,5.73
2019-03-24T07:44:43.965Z,5.33
2019-03-24T07:47:17.294Z,5.70
2019-03-24T07:52:29.265Z,5.73
2019-03-24T07:55:08.819Z,5.83
2019-03-24T07:57:42.279Z,6.13
2019-03-24T08:00:38.344Z,6.00
2019-03-24T08:03:11.832Z,5.43
2019-03-24T08:05:45.100Z,5.30
2019-03-24T08:08:17.688Z,5.73
2019-03-24T08:10:50.235Z,5.83
2019-03-24T08:13:23.686Z,5.20
2019-03-24T08:15:56.679Z,5.33
2019-03-24T08:18:30.399Z,5.20
2019-03-24T08:21:03.341Z,4.93
2019-03-24T08:23:35.981Z,5.50
2019-03-24T08:26:08.684Z,5.47
2019-03-24T08:28:42.171Z,4.73
2019-03-24T08:31:15.215Z,4.90
2019-03-24T08:33:47.937Z,5.07
2019-03-24T08:36:21.397Z,4.80
2019-03-24T08:38:54.701Z,4.07
2019-03-24T08:41:28.843Z,4.00
2019-03-24T08:44:01.794Z,4.60
2019-03-24T08:46:34.851Z,5.37
2019-03-24T08:49:07.429Z,5.47
2019-03-24T08:51:40.295Z,4.67
2019-03-24T08:54:14.018Z,4.17
2019-03-24T08:56:48.074Z,4.57
2019-03-24T08:59:21.107Z,4.30
2019-03-24T09:01:53.632Z,4.13
2019-03-24T09:04:26.550Z,4.30
2019-03-24T09:07:00.286Z,4.30
2019-03-24T09:09:33.387Z,3.80
2019-03-24T09:12:07.077Z,4.30
2019-03-24T09:14:39.891Z,3.93
2019-03-24T09:17:12.807Z,3.73
2019-03-24T09:19:48.966Z,3.40
2019-03-24T09:22:22.098Z,3.27
2019-03-24T09:25:02.142Z,3.77
2019-03-24T09:27:34.662Z,3.23
2019-03-24T09:30:09.807Z,4.13
2019-03-24T09:32:42.785Z,6.70
2019-03-24T09:35:16.557Z,9.13
2019-03-24T09:37:49.432Z,8.03
2019-03-24T09:40:29.708Z,4.80
2019-03-24T09:43:03.922Z,17.03
2019-03-24T09:45:37.492Z,16.53
2019-03-24T09:48:10.821Z,13.30
2019-03-24T09:50:45.329Z,10.57
2019-03-24T09:53:18.116Z,8.87
2019-03-24T09:55:52.192Z,8.87
2019-03-24T09:58:25.307Z,5.50
2019-03-24T10:00:57.866Z,4.43
2019-03-24T10:03:31.860Z,5.07
2019-03-24T10:06:04.718Z,5.33
2019-03-24T10:08:46.769Z,3.50
2019-03-24T10:11:12.475Z,3.60
2019-03-24T10:13:45.090Z,5.13
2019-03-24T10:16:17.814Z,5.77
2019-03-24T10:18:50.653Z,6.37
2019-03-24T10:21:23.644Z,5.80
2019-03-24T10:23:56.882Z,4.90
2019-03-24T10:26:29.897Z,3.87
2019-03-24T10:29:03.048Z,5.70
2019-03-24T10:31:35.885Z,5.40
2019-03-24T10:34:11.371Z,5.10
2019-03-24T10:36:45.064Z,3.80
2019-03-24T10:39:21.988Z,4.47
2019-03-24T10:41:55.021Z,4.40
2019-03-24T10:44:30.970Z,4.43
2019-03-24T10:47:04.662Z,4.50
2019-03-24T10:49:41.429Z,4.00
2019-03-24T10:52:14.502Z,3.90
2019-03-24T10:54:51.623Z,3.70
2019-03-24T10:57:25.226Z,3.70
2019-03-24T11:00:04.355Z,3.77
2019-03-24T11:02:37.633Z,3.43
2019-03-24T11:05:12.766Z,4.57
2019-03-24T11:07:46.381Z,4.37
2019-03-24T11:10:21.912Z,10.10
2019-03-24T11:12:55.473Z,3.77
2019-03-24T11:15:35.794Z,19.93
2019-03-24T11:18:09.695Z,3.60
2019-03-24T11:20:45.326Z,3.93
2019-03-24T11:23:18.063Z,4.23
2019-03-24T11:25:53.924Z,3.67
2019-03-24T11:28:26.868Z,3.77
2019-03-24T11:31:03.605Z,3.47
2019-03-24T11:33:37.912Z,3.97
2019-03-24T11:36:15.138Z,3.67
2019-03-24T11:38:49.632Z,3.40
2019-03-24T11:41:24.128Z,3.70
2019-03-24T11:43:56.903Z,3.83
2019-03-24T11:46:29.530Z,3.87
2019-03-24T11:49:02.821Z,3.80
2019-03-24T11:51:36.081Z,3.57
2019-03-24T11:54:09.214Z,3.60
2019-03-24T11:56:42.503Z,4.17
2019-03-24T11:59:15.460Z,3.90
2019-03-24T12:01:48.314Z,3.83
2019-03-24T12:04:21.514Z,3.80
2019-03-24T12:06:54.361Z,3.60
2019-03-24T12:09:28.379Z,4.20
2019-03-24T12:12:01.170Z,4.00
2019-03-24T12:14:33.962Z,3.90
2019-03-24T12:17:06.865Z,3.60
2019-03-24T12:19:39.949Z,3.63
2019-03-24T12:22:14.490Z,3.57
2019-03-24T12:24:47.061Z,4.00
2019-03-24T12:27:19.844Z,3.57
2019-03-24T12:29:52.452Z,3.43
2019-03-24T12:32:25.239Z,3.80
2019-03-24T12:34:58.764Z,4.10
2019-03-24T12:37:32.927Z,3.40
2019-03-24T12:40:06.346Z,3.00
2019-03-24T12:42:39.119Z,3.60
2019-03-24T12:45:12.857Z,3.57
2019-03-24T12:47:46.285Z,3.40
2019-03-24T12:50:30.661Z,3.67
2019-03-24T12:52:53.754Z,3.50
2019-03-24T12:55:26.918Z,3.47
2019-03-24T12:58:00.328Z,3.10
2019-03-24T13:00:41.589Z,3.90
2019-03-24T13:03:14.537Z,3.50
2019-03-24T13:05:47.388Z,3.57
2019-03-24T13:08:21.374Z,3.00
2019-03-24T13:10:55.012Z,2.93
2019-03-24T13:13:27.909Z,4.27
2019-03-24T13:16:00.350Z,3.20
2019-03-24T13:18:32.964Z,3.20
2019-03-24T13:21:05.798Z,3.17
2019-03-24T13:23:42.766Z,2.90
2019-03-24T13:26:16.231Z,3.40
2019-03-24T13:28:49.147Z,2.80
2019-03-24T13:31:21.908Z,2.87
2019-03-24T13:33:54.710Z,2.97
2019-03-24T13:36:27.604Z,2.93
2019-03-24T13:39:00.928Z,3.10
2019-03-24T13:41:33.522Z,3.40
2019-03-24T13:44:09.281Z,3.30
2019-03-24T13:46:42.188Z,5.60
2019-03-24T13:49:19.064Z,3.00
2019-03-24T13:51:51.940Z,3.17
2019-03-24T13:54:28.861Z,3.17
2019-03-24T13:57:02.018Z,3.30
2019-03-24T13:59:38.782Z,3.17
2019-03-24T14:02:11.938Z,2.77
2019-03-24T14:04:50.691Z,2.97
2019-03-24T14:07:23.314Z,3.00
2019-03-24T14:09:59.895Z,3.00
2019-03-24T14:12:33.055Z,2.93
2019-03-24T14:15:14.909Z,3.30
2019-03-24T14:17:49.202Z,3.57
2019-03-24T14:20:22.300Z,3.50
2019-03-24T14:22:55.561Z,3.10
2019-03-24T14:25:30.944Z,4.03
2019-03-24T14:28:03.466Z,3.20
2019-03-24T14:30:54.752Z,3.57
2019-03-24T14:33:27.527Z,3.77
2019-03-24T14:36:00.372Z,3.27
2019-03-24T14:38:33.307Z,3.27
2019-03-24T14:41:07.147Z,3.30
2019-03-24T14:43:39.803Z,3.33
2019-03-24T14:46:12.388Z,3.87
2019-03-24T14:48:46.082Z,3.87
2019-03-24T14:51:21.224Z,4.40
2019-03-24T14:53:57.167Z,4.20
2019-03-24T14:56:38.453Z,4.00
2019-03-24T14:59:10.976Z,3.50
2019-03-24T15:01:44.032Z,4.63
2019-03-24T15:04:19.834Z,3.70
2019-03-24T15:06:58.387Z,3.67
2019-03-24T15:09:31.068Z,4.20
2019-03-24T15:12:04.361Z,5.13
2019-03-24T15:14:39.125Z,5.20
2019-03-24T15:17:14.599Z,3.83
2019-03-24T15:19:47.372Z,4.23
2019-03-24T15:22:31.014Z,3.93
2019-03-24T15:25:05.244Z,4.40
2019-03-24T15:27:38.233Z,4.70
2019-03-24T15:30:12.631Z,4.53
2019-03-24T15:32:45.763Z,4.20
2019-03-24T15:35:20.599Z,4.63
2019-03-24T15:38:07.814Z,3.73
2019-03-24T15:40:30.638Z,4.43
2019-03-24T15:43:07.503Z,5.07
2019-03-24T15:45:41.385Z,3.93
2019-03-24T15:48:14.535Z,3.67
2019-03-24T15:50:47.321Z,4.43
2019-03-24T15:53:32.876Z,4.40
2019-03-24T15:56:06.428Z,3.93
2019-03-24T15:58:42.399Z,3.80
2019-03-24T16:01:15.003Z,3.40
2019-03-24T16:03:51.092Z,3.60
2019-03-24T16:06:24.858Z,3.77
2019-03-24T16:09:04.347Z,3.63
2019-03-24T16:11:37.128Z,3.40
2019-03-24T16:14:09.777Z,3.30
2019-03-24T16:16:45.459Z,3.20
2019-03-24T16:19:29.033Z,3.60
2019-03-24T16:22:02.967Z,3.60
2019-03-24T16:24:36.007Z,4.13
2019-03-24T16:27:10.014Z,3.27
2019-03-24T16:29:43.098Z,3.53
2019-03-24T16:32:16.143Z,3.40
2019-03-24T16:34:56.133Z,3.27
2019-03-24T16:37:29.942Z,3.07
2019-03-24T16:40:06.830Z,3.20
2019-03-24T16:42:39.854Z,3.17
2019-03-24T16:45:12.821Z,3.10
2019-03-24T16:47:47.063Z,3.40
2019-03-24T16:50:24.229Z,2.93
2019-03-24T16:52:57.376Z,3.67
2019-03-24T16:55:30.409Z,2.70
2019-03-24T16:58:03.368Z,3.00
2019-03-24T17:00:42.510Z,8.83
2019-03-24T17:03:15.852Z,6.70
2019-03-24T17:05:51.809Z,3.20
2019-03-24T17:08:24.957Z,3.03
2019-03-24T17:11:01.333Z,3.53
2019-03-24T17:13:34.910Z,3.70
2019-03-24T17:16:10.779Z,3.60
2019-03-24T17:18:43.654Z,3.03
2019-03-24T17:21:35.054Z,2.93
2019-03-24T17:24:07.725Z,3.27
2019-03-24T17:26:40.606Z,3.67
2019-03-24T17:29:13.510Z,5.10
2019-03-24T17:31:46.516Z,4.53
2019-03-24T17:34:20.136Z,3.83
2019-03-24T17:36:53.136Z,3.27
2019-03-24T17:39:27.251Z,3.57
2019-03-24T17:42:06.030Z,3.57
2019-03-24T17:44:39.834Z,4.07
2019-03-24T17:47:13.741Z,4.40
2019-03-24T17:49:47.508Z,6.60
2019-03-24T17:52:20.513Z,7.70
2019-03-24T17:54:54.254Z,4.50
2019-03-24T17:57:27.623Z,3.20
2019-03-24T18:00:00.575Z,3.90
2019-03-24T18:02:33.661Z,5.97
2019-03-24T18:05:07.262Z,3.73
2019-03-24T18:07:40.338Z,3.80
2019-03-24T18:10:13.822Z,3.83
2019-03-24T18:12:46.833Z,3.67
2019-03-24T18:15:21.601Z,3.27
2019-03-24T18:17:55.017Z,5.00
2019-03-24T18:20:34.204Z,6.93
2019-03-24T18:23:07.070Z,3.50
2019-03-24T18:25:40.722Z,5.53
2019-03-24T18:28:16.099Z,6.10
2019-03-24T18:30:55.898Z,6.93
2019-03-24T18:33:29.017Z,5.77
2019-03-24T18:36:02.808Z,5.10
2019-03-24T18:38:36.306Z,5.30
2019-03-24T18:41:09.679Z,4.40
2019-03-24T18:43:42.696Z,4.60
2019-03-24T18:46:15.505Z,5.80
2019-03-24T18:48:48.317Z,4.30
2019-03-24T18:51:22.245Z,5.00
2019-03-24T18:53:56.062Z,3.80
2019-03-24T18:56:28.640Z,4.20
2019-03-24T18:59:02.666Z,4.50
2019-03-24T19:01:36.024Z,5.03
2019-03-24T19:04:08.807Z,3.67
2019-03-24T19:06:41.875Z,4.60
2019-03-24T19:09:15.244Z,4.40
2019-03-24T19:11:48.857Z,3.40
2019-03-24T19:14:21.621Z,3.90
2019-03-24T19:16:55.226Z,3.60
2019-03-24T19:19:28.007Z,3.53
2019-03-24T19:22:00.933Z,3.37
2019-03-24T19:24:34.326Z,3.50
2019-03-24T19:27:06.869Z,3.90
2019-03-24T19:29:39.533Z,3.20
2019-03-24T19:32:13.058Z,3.40
2019-03-24T19:34:46.360Z,3.00
2019-03-24T19:37:18.804Z,3.00
2019-03-24T19:39:52.026Z,3.47
2019-03-24T19:42:25.571Z,3.33
2019-03-24T19:44:58.764Z,3.73
2019-03-24T19:47:31.796Z,3.43
2019-03-24T19:50:04.943Z,3.73
2019-03-24T19:52:44.559Z,3.00
2019-03-24T19:55:13.798Z,3.30
2019-03-24T19:57:47.485Z,3.07
2019-03-24T20:00:20.548Z,3.80
2019-03-24T20:02:54.237Z,3.70
2019-03-24T20:05:27.624Z,3.63
2019-03-24T20:08:00.987Z,3.43
2019-03-24T20:10:35.098Z,3.73
2019-03-24T20:13:08.417Z,3.20
2019-03-24T20:15:41.515Z,3.60
2019-03-24T20:18:15.356Z,3.13
2019-03-24T20:20:49.036Z,3.33
2019-03-24T20:23:22.496Z,3.40
2019-03-24T20:25:56.086Z,3.67
2019-03-24T20:28:37.465Z,3.67
2019-03-24T20:31:10.965Z,3.97
2019-03-24T20:33:48.725Z,3.33
2019-03-24T20:36:22.102Z,3.47
2019-03-24T20:38:59.898Z,3.27
2019-03-24T20:41:33.221Z,3.50
2019-03-24T20:44:11.243Z,3.60
2019-03-24T20:46:50.351Z,3.60
2019-03-24T20:49:21.060Z,3.40
2019-03-24T20:51:54.281Z,3.50
2019-03-24T20:54:31.190Z,3.57
2019-03-24T20:57:04.613Z,3.83
2019-03-24T20:59:38.973Z,3.30
2019-03-24T21:02:11.784Z,3.70
2019-03-24T21:04:52.303Z,3.57
2019-03-24T21:07:25.224Z,4.40
2019-03-24T21:09:58.597Z,3.63
2019-03-24T21:12:31.632Z,4.00
2019-03-24T21:15:11.279Z,6.30
2019-03-24T21:17:44.207Z,13.00
2019-03-24T21:20:23.524Z,11.10
2019-03-24T21:22:57.183Z,11.70
2019-03-24T21:25:33.470Z,14.20
2019-03-24T21:28:06.580Z,13.70
2019-03-24T21:30:43.788Z,5.60
2019-03-24T21:33:18.404Z,4.13
2019-03-24T21:35:51.257Z,3.70
2019-03-24T21:38:24.579Z,3.83
2019-03-24T21:40:58.023Z,4.20
2019-03-24T21:43:31.539Z,3.80
2019-03-24T21:46:13.953Z,3.97
2019-03-24T21:48:48.347Z,3.60
2019-03-24T21:51:21.911Z,3.70
2019-03-24T21:53:56.033Z,4.00
2019-03-24T21:56:35.857Z,3.67
2019-03-24T21:59:09.059Z,3.73
2019-03-24T22:01:45.167Z,3.93
2019-03-24T22:04:20.782Z,4.20
2019-03-24T22:06:53.758Z,4.10
2019-03-24T22:09:26.773Z,4.13
2019-03-24T22:12:06.083Z,4.03
2019-03-24T22:14:38.742Z,3.70
2019-03-24T22:17:15.090Z,4.30
2019-03-24T22:19:47.803Z,4.20
2019-03-24T22:22:21.041Z,5.37
2019-03-24T22:24:53.782Z,4.43
2019-03-24T22:27:38.011Z,5.63
2019-03-24T22:30:11.132Z,6.30
2019-03-24T22:32:47.158Z,4.73
2019-03-24T22:35:20.473Z,4.57
2019-03-24T22:37:56.247Z,4.00
2019-03-24T22:40:29.936Z,5.00
2019-03-24T22:43:04.311Z,3.90
2019-03-24T22:45:36.972Z,4.30
2019-03-24T22:48:10.038Z,4.23
2019-03-24T22:50:43.148Z,4.40
2019-03-24T22:53:16.293Z,3.87
2019-03-24T22:55:48.921Z,4.63
2019-03-24T22:58:21.724Z,4.00
2019-03-24T23:00:57.171Z,4.40
2019-03-24T23:03:30.350Z,5.03
2019-03-24T23:06:02.992Z,4.87
2019-03-24T23:08:35.945Z,4.07
2019-03-24T23:11:10.149Z,4.97
2019-03-24T23:13:42.711Z,4.57
2019-03-24T23:16:15.448Z,5.43
2019-03-24T23:18:48.484Z,5.70
2019-03-24T23:21:21.299Z,4.60
2019-03-24T23:23:54.291Z,4.47
2019-03-24T23:26:28.474Z,4.50
2019-03-24T23:29:02.249Z,4.90
2019-03-24T23:31:34.862Z,4.83
2019-03-24T23:34:08.586Z,4.20
2019-03-24T23:36:41.348Z,4.43
2019-03-24T23:39:16.709Z,4.47
2019-03-24T23:41:49.509Z,4.97
2019-03-24T23:44:24.068Z,4.50
2019-03-24T23:46:56.835Z,4.50
2019-03-24T23:49:29.549Z,4.70
2019-03-24T23:52:02.272Z,4.90
2019-03-24T23:54:35.159Z,4.90
2019-03-24T23:57:07.719Z,4.80
2019-03-24T23:59:40.313Z,4.97
